Mayfield Heights, OH (44124)

12:42 AM EST on February 11, 2016 (GMT -0500)
Cleveland East Side | | Change Station
CLOSE
Current Station
Personal Weather Station
Location: Cleveland, OH
Elevation: 0 ft
Nearby Weather Stations
Active Advisory: Lake Effect Snow Advisory Active Notice: Local Storm Report

Elev 0 ft 41.51 °N, 81.64 °W | Updated 34 seconds ago

Light Snow
Light Snow
17.6 °F
Feels Like 18 °F
N
1.1
Wind Variable Wind from SW

Today
High -- | Low -- °F
--% Chance of Precip.
Yesterday
High -- | Low -- °F
Precip. -- in
Pressure 29.99 in
Visibility 7.0 miles
Clouds Scattered Clouds 2900 ft
Mostly Cloudy 3800 ft
Overcast 7000 ft
Windchill 18 °F
Dew Point 9 °F
Humidity 68%
Rainfall 0.00 in
Snow Depth Not available.
7:27 AM 5:54 PM
Waxing Crescent, 9% visible
METAR KBKL 110453Z 31021G29KT 7SM -SN SCT029 BKN038 OVC070 M07/M13 A2996 RMK AO2 PK WND 30032/0437 SLP154 P0000 T10671128 410221067
Pressure 29.99 in
Visibility 7.0 miles
Clouds Scattered Clouds 2900 ft
Mostly Cloudy 3800 ft
Overcast 7000 ft
Windchill 18 °F
Dew Point 9 °F
Humidity 68%
Rainfall 0.00 in
Snow Depth Not available.
7:27 AM 5:54 PM
Waxing Crescent, 9% visible
METAR KBKL 110453Z 31021G29KT 7SM -SN SCT029 BKN038 OVC070 M07/M13 A2996 RMK AO2 PK WND 30032/0437 SLP154 P0000 T10671128 410221067

10-Day Weather Forecast

Almanac

Astronomy

Feb. 11, 2016 Rise Set
Actual Time
Civil Twilight
Nautical Twilight
Astronomical Twilight
Moon
Length of Visible Light
Length of Day
Tomorrow will be .
, % of the Moon is Illuminated

Today's Extremes

State Highs State Lows

Community

WunderPhotos

Upload Photos

1,892,023 photos uploaded!

WunderBlog® & News

Nearby

Air Quality

  Air Quality AQ Index Pollutant
Not available.

Snow Depth

Station Depth Elevation

Earthquake Activity

City Distance Mag. Time & Date
Minimum magnitude displayed is 2.5.

Coastal Water Temperatures

Place Temperature

Stations

Nearby Weather Stations

Station Location Temp. Windchill Dew Point Humidity Wind Precip. Elev Updated Type
                   

Watches & Warnings

Lake Effect Snow Advisory
Issued: 9:10 PM EST Feb. 10, 2016 – National Weather Service

... Lake effect Snow Advisory remains in effect until 4 PM EST
Thursday...

* accumulations... 2 to 5 inches of snow.

* Timing... snow showers will continue into Thursday. The snow
showers are expected to diminish in coverage and intensity on
Thursday... especially in the afternoon.

* Impacts... snow covered roads and reduced visibility during
heavier snow showers and squalls.

* Winds... northwest 15 to 25 mph with gusts up to 30 mph.

* Temperatures... 8 to 18 degrees.

Precautionary/preparedness actions...

In lake effect snow the weather can vary from locally heavy snow
in narrow bands to dry weather just a few miles away. If you will
be traveling across the region be prepared for rapid changes in
Road and visibility conditions. Stay tuned to NOAA Weather Radio
for further details or updates.